Route Details

Aircraft Information
Group: North America Fleet
Types: B738, B752, B762, B763
Route Data
Distance: 1705nm
Duration: 0h 00m
Origin METAR: KCVG 191052Z 17004KT 10SM SCT160 BKN250 24/22 A3023 RMK AO2 SLP223 T02440222
Dest. METAR: KSEA 191053Z 35006KT 10SM CLR 11/08 A2999 RMK AO2 SLP161 T01060078
Freight Data
(for Jun 19, 2024)
Load Factor:
63%
Manifested Cargo: 36,359lbs
Financial History
Total Freight: 23,185lbs
Average Load: 0lbs/flt
Fuel Used: 21,886lbs
Avg. Fuel Used: 0lbs/flt
Fuel Expense: $10,286
Avg. Fuel Expense: $0
Avg. Fuel Cost: $0/lbs
Total Gross Income: $60,745
Pilot Pay: $269
Total Expenses: $14,543
Total Revenue: $33,935
Average Revenue: $0

Capitol Logistics 364




KCVG
Cincinnati/Northern Kentucky International Airport
Covington, Kentucky
KSEA
Seattle-Tacoma International Airport
Seattle, Washington

Activity Log

Date Flight Route Aircraft Duration
06/29/2023 CPX364 CHCLL5 IIU J8 STL DCT PWE DCT LBF DCT BFF DCT BOY DCT DNJ DCT PDT CHINS5 B738 4h 51m